createdAt,value
2019-04-14T00:00:44.760Z,5.23
2019-04-14T00:03:32.515Z,5.30
2019-04-14T00:06:04.843Z,5.30
2019-04-14T00:08:35.207Z,5.05
2019-04-14T00:11:06.303Z,5.17
2019-04-14T00:13:37.028Z,5.37
2019-04-14T00:16:07.405Z,5.46
2019-04-14T00:18:38.472Z,5.42
2019-04-14T00:21:10.797Z,5.34
2019-04-14T00:23:41.278Z,5.56
2019-04-14T00:26:27.426Z,5.20
2019-04-14T00:28:58.288Z,5.27
2019-04-14T00:31:28.772Z,5.35
2019-04-14T00:34:00.718Z,5.46
2019-04-14T00:36:30.482Z,5.46
2019-04-14T00:39:00.922Z,5.64
2019-04-14T00:41:39.479Z,5.56
2019-04-14T00:44:05.679Z,5.36
2019-04-14T00:46:39.456Z,5.16
2019-04-14T00:49:09.360Z,5.26
2019-04-14T00:51:40.604Z,5.23
2019-04-14T00:54:11.001Z,5.28
2019-04-14T00:56:41.154Z,5.23
2019-04-14T00:59:11.410Z,5.16
2019-04-14T01:01:41.628Z,5.27
2019-04-14T01:04:12.221Z,5.08
2019-04-14T01:06:42.607Z,5.14
2019-04-14T01:09:15.140Z,5.18
2019-04-14T01:11:46.525Z,5.24
2019-04-14T01:14:16.942Z,5.20
2019-04-14T01:16:47.359Z,5.22
2019-04-14T01:19:17.766Z,5.46
2019-04-14T01:21:48.105Z,5.49
2019-04-14T01:24:18.559Z,5.47
2019-04-14T01:26:48.520Z,5.30
2019-04-14T01:29:18.805Z,5.15
2019-04-14T01:31:49.370Z,5.05
2019-04-14T01:34:19.507Z,5.18
2019-04-14T01:36:49.683Z,5.10
2019-04-14T01:39:19.732Z,5.10
2019-04-14T01:41:49.986Z,5.21
2019-04-14T01:44:19.907Z,5.04
2019-04-14T01:46:49.880Z,5.04
2019-04-14T01:49:20.352Z,5.12
2019-04-14T01:52:08.181Z,5.24
2019-04-14T01:54:39.472Z,5.33
2019-04-14T01:57:11.053Z,5.39
2019-04-14T01:59:41.297Z,5.27
2019-04-14T02:02:12.555Z,5.24
2019-04-14T02:04:44.345Z,5.36
2019-04-14T02:07:14.495Z,5.11
2019-04-14T02:09:44.643Z,5.06
2019-04-14T02:12:14.876Z,5.13
2019-04-14T02:14:45.168Z,5.20
2019-04-14T02:17:15.379Z,5.37
2019-04-14T02:19:45.991Z,5.23
2019-04-14T02:22:15.973Z,5.24
2019-04-14T02:24:46.036Z,5.24
2019-04-14T02:27:16.625Z,5.37
2019-04-14T02:29:47.257Z,5.28
2019-04-14T02:32:43.323Z,5.49
2019-04-14T02:38:06.546Z,5.38
2019-04-14T02:40:20.831Z,5.44
2019-04-14T02:42:48.279Z,5.37
2019-04-14T02:50:41.705Z,5.42
2019-04-14T02:53:01.887Z,5.36
2019-04-14T02:55:23.698Z,5.43
2019-04-14T02:58:01.661Z,5.33
2019-04-14T03:00:35.562Z,5.27
2019-04-14T03:05:37.678Z,5.01
2019-04-14T03:08:11.268Z,5.04
2019-04-14T03:13:15.905Z,5.02
2019-04-14T03:15:43.211Z,5.09
2019-04-14T03:18:31.789Z,5.04
2019-04-14T03:21:19.773Z,4.93
2019-04-14T03:24:03.101Z,5.05
2019-04-14T03:26:44.733Z,5.00
2019-04-14T03:29:19.575Z,5.10
2019-04-14T03:32:02.267Z,5.04
2019-04-14T03:39:27.306Z,5.46
2019-04-14T03:41:56.842Z,5.27
2019-04-14T03:44:29.984Z,5.36
2019-04-14T03:47:03.370Z,5.35
2019-04-14T03:49:31.678Z,5.28
2019-04-14T03:52:15.626Z,5.29
2019-04-14T03:54:29.106Z,5.34
2019-04-14T03:56:55.479Z,5.35
2019-04-14T03:59:26.113Z,5.55
2019-04-14T04:01:56.619Z,5.49
2019-04-14T04:04:27.469Z,5.41
2019-04-14T04:06:57.496Z,5.43
2019-04-14T04:09:32.183Z,5.64
2019-04-14T04:12:03.008Z,5.49
2019-04-14T04:14:33.471Z,5.39
2019-04-14T04:17:10.554Z,5.47
2019-04-14T04:19:43.301Z,5.46
2019-04-14T04:22:25.849Z,5.53
2019-04-14T04:25:00.801Z,5.39
2019-04-14T04:27:33.067Z,5.49
2019-04-14T04:30:14.422Z,5.40
2019-04-14T04:32:51.574Z,5.37
2019-04-14T04:35:30.336Z,5.32
2019-04-14T04:38:13.816Z,5.35
2019-04-14T04:40:44.534Z,5.40
2019-04-14T04:43:14.703Z,5.40
2019-04-14T04:45:45.239Z,5.50
2019-04-14T04:48:15.210Z,5.53
2019-04-14T04:50:47.634Z,5.42
2019-04-14T04:53:18.093Z,5.49
2019-04-14T04:55:48.120Z,5.45
2019-04-14T04:58:17.764Z,5.49
2019-04-14T05:00:50.966Z,5.35
2019-04-14T05:03:19.018Z,5.45
2019-04-14T05:06:29.242Z,5.47
2019-04-14T05:09:01.482Z,5.47
2019-04-14T05:11:36.184Z,5.26
2019-04-14T05:14:08.679Z,5.33
2019-04-14T05:16:39.472Z,5.46
2019-04-14T05:19:17.312Z,5.50
2019-04-14T05:21:40.928Z,5.60
2019-04-14T05:24:11.435Z,5.63
2019-04-14T05:26:41.760Z,5.49
2019-04-14T05:29:12.357Z,5.65
2019-04-14T05:31:42.557Z,5.62
2019-04-14T05:34:12.905Z,5.52
2019-04-14T05:36:43.268Z,5.67
2019-04-14T05:39:13.593Z,5.62
2019-04-14T05:41:54.980Z,5.54
2019-04-14T05:44:14.487Z,5.49
2019-04-14T05:46:44.675Z,5.67
2019-04-14T05:49:26.281Z,5.74
2019-04-14T05:51:48.023Z,5.68
2019-04-14T05:54:18.546Z,5.74
2019-04-14T05:56:49.314Z,5.98
2019-04-14T05:59:19.841Z,5.80
2019-04-14T06:01:49.420Z,5.75
2019-04-14T06:04:19.944Z,5.62
2019-04-14T06:06:49.553Z,5.63
2019-04-14T06:09:19.118Z,5.65
2019-04-14T06:11:49.841Z,5.68
2019-04-14T06:14:19.399Z,5.98
2019-04-14T06:16:48.974Z,5.99
2019-04-14T06:19:18.574Z,5.90
2019-04-14T06:21:48.277Z,5.90
2019-04-14T06:24:17.837Z,6.17
2019-04-14T06:26:47.408Z,6.21
2019-04-14T06:29:16.987Z,6.17
2019-04-14T06:32:03.143Z,6.18
2019-04-14T06:34:34.356Z,6.58
2019-04-14T06:37:11.381Z,6.41
2019-04-14T06:39:54.712Z,6.29
2019-04-14T06:42:24.285Z,6.20
2019-04-14T06:44:53.853Z,6.27
2019-04-14T06:47:23.496Z,6.43
2019-04-14T06:49:53.066Z,6.69
2019-04-14T06:52:22.681Z,6.71
2019-04-14T06:54:53.764Z,6.93
2019-04-14T06:57:23.336Z,7.29
2019-04-14T06:59:54.541Z,7.70
2019-04-14T07:02:24.128Z,7.86
2019-04-14T07:04:53.707Z,8.10
2019-04-14T07:07:23.287Z,8.36
2019-04-14T07:09:52.870Z,8.24
2019-04-14T07:12:22.423Z,7.85
2019-04-14T07:14:51.979Z,7.84
2019-04-14T07:17:21.552Z,8.17
2019-04-14T07:20:01.233Z,8.30
2019-04-14T07:22:22.398Z,8.46
2019-04-14T07:24:51.989Z,8.76
2019-04-14T07:27:21.615Z,8.94
2019-04-14T07:29:58.552Z,8.90
2019-04-14T07:32:38.290Z,8.73
2019-04-14T07:35:12.515Z,8.73
2019-04-14T07:37:43.717Z,8.98
2019-04-14T07:40:15.094Z,9.30
2019-04-14T07:42:49.112Z,9.08
2019-04-14T07:45:20.893Z,9.29
2019-04-14T07:48:02.431Z,8.85
2019-04-14T07:50:46.974Z,8.30
2019-04-14T07:53:16.302Z,8.52
2019-04-14T07:56:07.297Z,8.79
2019-04-14T07:58:42.760Z,8.63
2019-04-14T08:01:13.969Z,8.55
2019-04-14T08:03:54.141Z,8.45
2019-04-14T08:06:23.805Z,8.63
2019-04-14T08:08:53.478Z,8.49
2019-04-14T08:11:23.035Z,8.41
2019-04-14T08:13:52.610Z,8.49
2019-04-14T08:16:22.244Z,8.98
2019-04-14T08:18:52.085Z,8.91
2019-04-14T08:21:21.660Z,9.12
2019-04-14T08:23:51.232Z,9.18
2019-04-14T08:26:20.797Z,9.27
2019-04-14T08:28:50.371Z,8.83
2019-04-14T08:31:19.933Z,8.99
2019-04-14T08:33:49.513Z,9.27
2019-04-14T08:36:19.067Z,9.41
2019-04-14T08:38:48.640Z,9.49
2019-04-14T08:41:18.201Z,9.62
2019-04-14T08:43:49.421Z,9.93
2019-04-14T08:46:23.181Z,10.00
2019-04-14T08:49:10.492Z,9.73
2019-04-14T08:51:44.410Z,9.71
2019-04-14T08:54:13.747Z,9.82
2019-04-14T08:56:44.955Z,10.29
2019-04-14T08:59:18.838Z,10.22
2019-04-14T09:02:06.196Z,10.02
2019-04-14T09:04:50.401Z,10.00
2019-04-14T09:07:30.422Z,10.23
2019-04-14T09:10:04.503Z,10.49
2019-04-14T09:12:35.731Z,10.20
2019-04-14T09:15:07.555Z,10.50
2019-04-14T09:17:37.100Z,10.51
2019-04-14T09:20:08.000Z,10.27
2019-04-14T09:22:37.574Z,10.48
2019-04-14T09:25:08.116Z,10.89
2019-04-14T09:27:37.684Z,10.90
2019-04-14T09:30:09.350Z,11.06
2019-04-14T09:32:38.937Z,11.08
2019-04-14T09:35:09.033Z,11.26
2019-04-14T09:37:38.609Z,11.44
2019-04-14T09:40:08.795Z,11.54
2019-04-14T09:42:38.366Z,11.65
2019-04-14T09:45:08.278Z,11.61
2019-04-14T09:47:37.867Z,11.71
2019-04-14T09:50:07.815Z,11.79
2019-04-14T09:52:37.387Z,11.80
2019-04-14T09:55:08.294Z,11.88
2019-04-14T09:57:37.860Z,12.03
2019-04-14T10:00:08.119Z,12.05
2019-04-14T10:02:37.702Z,11.87
2019-04-14T10:05:08.275Z,12.06
2019-04-14T10:07:37.863Z,12.25
2019-04-14T10:10:08.041Z,12.04
2019-04-14T10:12:37.737Z,12.10
2019-04-14T10:15:07.821Z,11.65
2019-04-14T10:17:37.404Z,11.86
2019-04-14T10:20:09.253Z,12.27
2019-04-14T10:22:38.835Z,12.39
2019-04-14T10:25:08.572Z,12.53
2019-04-14T10:27:38.229Z,12.68
2019-04-14T10:30:09.049Z,12.02
2019-04-14T10:32:38.638Z,12.41
2019-04-14T10:35:08.391Z,12.76
2019-04-14T10:37:37.987Z,13.10
2019-04-14T10:40:07.688Z,12.99
2019-04-14T10:42:37.287Z,12.68
2019-04-14T10:45:09.085Z,13.07
2019-04-14T10:47:38.954Z,12.89
2019-04-14T10:50:09.347Z,13.26
2019-04-14T10:52:38.998Z,12.88
2019-04-14T10:55:09.094Z,12.49
2019-04-14T10:57:38.683Z,12.41
2019-04-14T11:00:16.096Z,12.19
2019-04-14T11:02:45.707Z,12.14
2019-04-14T11:05:17.647Z,12.31
2019-04-14T11:07:48.837Z,12.71
2019-04-14T11:10:18.420Z,12.96
2019-04-14T11:12:48.588Z,13.28
2019-04-14T11:15:18.212Z,13.12
2019-04-14T11:17:52.343Z,13.14
2019-04-14T11:20:21.653Z,13.13
2019-04-14T11:23:02.672Z,13.12
2019-04-14T11:25:22.608Z,13.21
2019-04-14T11:27:52.190Z,13.09
2019-04-14T11:30:23.443Z,13.61
2019-04-14T11:33:03.404Z,13.35
2019-04-14T11:35:34.630Z,13.35
2019-04-14T11:38:11.673Z,13.41
2019-04-14T11:40:42.896Z,13.53
2019-04-14T11:43:12.582Z,13.64
2019-04-14T11:45:42.179Z,13.53
2019-04-14T11:48:11.883Z,13.64
2019-04-14T11:50:41.456Z,13.48
2019-04-14T11:53:11.060Z,13.38
2019-04-14T11:55:40.650Z,13.63
2019-04-14T11:58:10.282Z,13.31
2019-04-14T12:00:59.994Z,13.14
2019-04-14T12:03:42.743Z,13.70
2019-04-14T12:06:25.946Z,14.17
2019-04-14T12:08:59.968Z,14.81
2019-04-14T12:11:29.546Z,14.05
2019-04-14T12:13:59.122Z,14.49
2019-04-14T12:16:28.774Z,14.80
2019-04-14T12:18:58.365Z,15.27
2019-04-14T12:21:28.042Z,15.00
2019-04-14T12:23:57.617Z,14.91
2019-04-14T12:26:27.190Z,14.80
2019-04-14T12:28:56.776Z,14.63
2019-04-14T12:31:27.099Z,14.83
2019-04-14T12:33:56.736Z,15.22
2019-04-14T12:36:26.399Z,15.45
2019-04-14T12:38:56.056Z,15.54
2019-04-14T12:41:27.347Z,15.60
2019-04-14T12:44:04.020Z,16.12
2019-04-14T12:46:35.267Z,15.88
2019-04-14T12:49:09.240Z,16.07
2019-04-14T12:51:40.456Z,15.92
2019-04-14T12:54:10.026Z,16.23
2019-04-14T12:56:39.606Z,16.98
2019-04-14T12:59:08.946Z,17.14
2019-04-14T13:01:46.094Z,17.12
2019-04-14T13:04:15.664Z,17.07
2019-04-14T13:06:45.242Z,17.26
2019-04-14T13:09:14.814Z,17.09
2019-04-14T13:11:44.395Z,15.97
2019-04-14T13:14:13.969Z,15.54
2019-04-14T13:16:43.544Z,15.15
2019-04-14T13:19:13.120Z,15.42
2019-04-14T13:21:42.688Z,15.67
2019-04-14T13:24:12.270Z,15.77
2019-04-14T13:26:41.840Z,16.63
2019-04-14T13:29:14.447Z,17.00
2019-04-14T13:31:44.094Z,16.76
2019-04-14T13:34:15.264Z,15.69
2019-04-14T13:36:44.857Z,16.19
2019-04-14T13:39:14.486Z,16.94
2019-04-14T13:41:44.071Z,17.39
2019-04-14T13:44:13.635Z,17.10
2019-04-14T13:46:43.207Z,17.25
2019-04-14T13:49:13.918Z,17.47
2019-04-14T13:51:43.505Z,17.61
2019-04-14T13:54:13.107Z,17.50
2019-04-14T13:56:42.780Z,18.05
2019-04-14T13:59:12.348Z,18.78
2019-04-14T14:01:41.925Z,18.97
2019-04-14T14:04:11.500Z,18.24
2019-04-14T14:06:41.093Z,18.63
2019-04-14T14:09:11.608Z,21.05
2019-04-14T14:11:42.821Z,21.54
2019-04-14T14:14:22.806Z,22.38
2019-04-14T14:16:55.096Z,24.61
2019-04-14T14:19:41.123Z,22.67
2019-04-14T14:22:12.449Z,21.44
2019-04-14T14:24:43.657Z,21.39
2019-04-14T14:27:13.272Z,20.58
2019-04-14T14:29:42.861Z,19.85
2019-04-14T14:32:14.068Z,19.22
2019-04-14T14:34:43.651Z,20.23
2019-04-14T14:37:13.266Z,20.73
2019-04-14T14:39:42.817Z,20.22
2019-04-14T14:42:14.051Z,22.11
2019-04-14T14:44:54.298Z,20.17
2019-04-14T14:47:25.522Z,20.48
2019-04-14T14:50:05.507Z,19.95
2019-04-14T14:52:36.713Z,19.33
2019-04-14T14:55:07.645Z,20.09
2019-04-14T14:57:37.215Z,19.71
2019-04-14T15:00:10.536Z,20.18
2019-04-14T15:02:40.113Z,20.03
2019-04-14T15:05:09.674Z,19.95
2019-04-14T15:07:39.270Z,19.86
2019-04-14T15:10:08.912Z,19.31
2019-04-14T15:12:38.457Z,20.07
2019-04-14T15:15:08.374Z,19.03
2019-04-14T15:17:37.967Z,19.62
2019-04-14T15:20:07.803Z,20.31
2019-04-14T15:22:37.450Z,21.23
2019-04-14T15:25:07.427Z,22.86
2019-04-14T15:27:36.990Z,24.28
2019-04-14T15:30:10.261Z,24.31
2019-04-14T15:32:39.829Z,26.02
2019-04-14T15:35:09.544Z,23.10
2019-04-14T15:37:39.174Z,22.10
2019-04-14T15:40:09.370Z,23.07
2019-04-14T15:42:38.931Z,24.64
2019-04-14T15:45:10.549Z,23.66
2019-04-14T15:47:40.197Z,24.94
2019-04-14T15:50:10.476Z,22.49
2019-04-14T15:52:40.054Z,22.40
2019-04-14T15:55:10.300Z,21.49
2019-04-14T15:57:54.644Z,22.85
2019-04-14T16:00:32.064Z,25.50
2019-04-14T16:03:06.023Z,26.72
2019-04-14T16:05:38.499Z,25.15
2019-04-14T16:08:09.712Z,25.88
2019-04-14T16:10:41.565Z,23.75
2019-04-14T16:13:12.815Z,20.58
2019-04-14T16:15:53.128Z,19.13
2019-04-14T16:18:40.240Z,18.33
2019-04-14T16:21:09.798Z,18.47
2019-04-14T16:23:50.046Z,17.13
2019-04-14T16:26:12.317Z,15.68
2019-04-14T16:28:43.596Z,14.80
2019-04-14T16:31:15.893Z,14.08
2019-04-14T16:34:01.668Z,13.72
2019-04-14T16:36:31.319Z,13.46
2019-04-14T16:39:00.890Z,12.99
2019-04-14T16:41:30.479Z,13.03
2019-04-14T16:44:00.069Z,13.00
2019-04-14T16:46:29.648Z,13.50
2019-04-14T16:48:59.215Z,13.53
2019-04-14T16:51:45.156Z,13.74
2019-04-14T16:54:25.260Z,13.05
2019-04-14T16:56:56.483Z,13.46
2019-04-14T16:59:26.077Z,13.71
2019-04-14T17:01:55.638Z,13.26
2019-04-14T17:04:25.280Z,12.92
2019-04-14T17:06:54.864Z,12.96
2019-04-14T17:09:24.431Z,12.74
2019-04-14T17:11:54.072Z,12.26
2019-04-14T17:14:25.240Z,12.03
2019-04-14T17:17:02.664Z,11.72
2019-04-14T17:19:33.874Z,11.70
2019-04-14T17:22:05.102Z,11.25
2019-04-14T17:24:52.293Z,11.28
2019-04-14T17:27:23.530Z,11.63
2019-04-14T17:30:00.401Z,11.19
2019-04-14T17:32:47.753Z,10.84
2019-04-14T17:35:21.689Z,10.55
2019-04-14T17:37:52.899Z,10.11
2019-04-14T17:40:24.130Z,10.00
2019-04-14T17:42:55.335Z,10.28
2019-04-14T17:45:35.298Z,10.17
2019-04-14T17:48:04.775Z,10.03
2019-04-14T17:50:45.080Z,10.06
2019-04-14T17:53:25.033Z,10.29
2019-04-14T17:55:54.372Z,9.89
2019-04-14T17:58:25.598Z,9.81
2019-04-14T18:01:12.964Z,10.02
2019-04-14T18:03:44.166Z,9.83
2019-04-14T18:06:15.482Z,10.05
2019-04-14T18:09:02.608Z,9.76
2019-04-14T18:11:31.951Z,9.65
2019-04-14T18:14:05.937Z,9.61
2019-04-14T18:16:40.930Z,9.54
2019-04-14T18:19:16.282Z,9.65
2019-04-14T18:21:45.883Z,9.56
2019-04-14T18:24:15.432Z,9.52
2019-04-14T18:26:45.033Z,9.39
2019-04-14T18:29:23.340Z,9.23
2019-04-14T18:31:54.550Z,9.35
2019-04-14T18:34:29.593Z,9.35
2019-04-14T18:37:00.782Z,9.34
2019-04-14T18:39:38.221Z,9.23
2019-04-14T18:42:30.298Z,9.11
2019-04-14T18:45:05.132Z,9.07
2019-04-14T18:47:48.080Z,9.08
2019-04-14T18:50:22.019Z,9.10
2019-04-14T18:52:55.629Z,9.08
2019-04-14T18:55:38.833Z,9.04
2019-04-14T18:58:10.114Z,8.93
2019-04-14T19:00:50.089Z,8.99
2019-04-14T19:03:19.660Z,8.95
2019-04-14T19:05:49.306Z,8.94
2019-04-14T19:08:19.995Z,9.02
2019-04-14T19:11:07.515Z,9.02
2019-04-14T19:13:38.449Z,8.98
2019-04-14T19:16:38.150Z,8.84
2019-04-14T19:19:04.044Z,8.80
2019-04-14T19:21:33.609Z,8.79
2019-04-14T19:24:03.161Z,8.74
2019-04-14T19:26:32.821Z,8.87
2019-04-14T19:29:02.432Z,8.87
2019-04-14T19:31:32.123Z,8.92
2019-04-14T19:34:01.716Z,8.78
2019-04-14T19:36:31.372Z,8.70
2019-04-14T19:39:00.909Z,8.71
2019-04-14T19:41:30.476Z,8.76
2019-04-14T19:44:00.054Z,8.59
2019-04-14T19:46:29.605Z,8.59
2019-04-14T19:48:59.167Z,8.67
2019-04-14T19:51:28.748Z,8.52
2019-04-14T19:53:58.365Z,8.41
2019-04-14T19:56:27.944Z,8.50
2019-04-14T19:58:57.500Z,8.54
2019-04-14T20:01:27.078Z,8.63
2019-04-14T20:03:56.636Z,8.42
2019-04-14T20:06:26.215Z,8.43
2019-04-14T20:08:56.172Z,8.49
2019-04-14T20:11:25.759Z,8.71
2019-04-14T20:13:55.305Z,8.75
2019-04-14T20:16:42.690Z,8.84
2019-04-14T20:19:17.000Z,8.59
2019-04-14T20:21:48.205Z,8.52
2019-04-14T20:24:25.353Z,8.37
2019-04-14T20:27:05.459Z,8.33
2019-04-14T20:29:48.886Z,8.29
2019-04-14T20:32:22.626Z,8.32
2019-04-14T20:34:52.178Z,8.31
2019-04-14T20:37:21.757Z,8.41
2019-04-14T20:39:52.425Z,8.44
2019-04-14T20:42:22.047Z,8.60
2019-04-14T20:44:53.216Z,8.57
2019-04-14T20:47:22.753Z,8.65
2019-04-14T20:49:55.292Z,8.56
2019-04-14T20:52:24.788Z,8.52
2019-04-14T20:54:54.364Z,8.44
2019-04-14T20:57:23.913Z,8.54
2019-04-14T20:59:53.601Z,8.59
2019-04-14T21:02:31.051Z,8.49
2019-04-14T21:05:00.419Z,8.53
2019-04-14T21:07:32.147Z,8.41
2019-04-14T21:10:04.277Z,8.40
2019-04-14T21:12:41.336Z,8.49
2019-04-14T21:15:15.184Z,8.42
2019-04-14T21:17:46.394Z,8.51
2019-04-14T21:20:20.288Z,8.46
2019-04-14T21:23:06.439Z,8.43
2019-04-14T21:25:43.254Z,8.71
2019-04-14T21:28:26.131Z,8.94
2019-04-14T21:31:04.220Z,8.61
2019-04-14T21:33:33.562Z,8.66
2019-04-14T21:36:04.741Z,8.76
2019-04-14T21:38:42.811Z,8.78
2019-04-14T21:41:15.541Z,8.80
2019-04-14T21:43:45.110Z,8.64
2019-04-14T21:46:14.697Z,8.43
2019-04-14T21:48:44.290Z,8.47
2019-04-14T21:51:14.003Z,8.42
2019-04-14T21:53:44.195Z,8.48
2019-04-14T21:56:13.999Z,8.47
2019-04-14T21:58:48.319Z,8.37
2019-04-14T22:01:40.156Z,8.44
2019-04-14T22:04:15.740Z,8.34
2019-04-14T22:06:49.741Z,8.33
2019-04-14T22:09:23.375Z,8.44
2019-04-14T22:11:52.940Z,8.41
2019-04-14T22:14:22.499Z,8.36
2019-04-14T22:16:52.095Z,8.38
2019-04-14T22:19:21.769Z,8.44
2019-04-14T22:21:51.333Z,8.41
2019-04-14T22:24:20.929Z,8.41
2019-04-14T22:26:50.557Z,8.61
2019-04-14T22:29:21.335Z,8.65
2019-04-14T22:31:50.997Z,8.65
2019-04-14T22:34:20.604Z,8.84
2019-04-14T22:36:50.175Z,9.09
2019-04-14T22:39:21.356Z,8.87
2019-04-14T22:41:50.912Z,8.83
2019-04-14T22:44:22.219Z,8.68
2019-04-14T22:46:51.803Z,8.98
2019-04-14T22:49:23.021Z,8.98
2019-04-14T22:51:52.588Z,8.90
2019-04-14T22:54:23.711Z,9.12
2019-04-14T22:56:53.377Z,9.12
2019-04-14T22:59:22.926Z,8.60
2019-04-14T23:01:54.205Z,8.59
2019-04-14T23:04:25.405Z,8.44
2019-04-14T23:07:05.741Z,8.81
2019-04-14T23:09:36.979Z,8.90
2019-04-14T23:12:08.929Z,8.46
2019-04-14T23:14:56.396Z,8.37
2019-04-14T23:17:27.675Z,8.26
2019-04-14T23:19:58.862Z,8.17
2019-04-14T23:29:52.550Z,7.81
2019-04-14T23:32:22.495Z,7.95
2019-04-14T23:34:52.042Z,7.83
2019-04-14T23:37:21.654Z,7.87
2019-04-14T23:39:51.239Z,7.93
2019-04-14T23:42:20.807Z,7.84
2019-04-14T23:44:50.377Z,7.78
2019-04-14T23:47:19.932Z,7.69
2019-04-14T23:49:49.617Z,7.63
2019-04-14T23:52:19.200Z,7.61
2019-04-14T23:54:50.325Z,7.72
2019-04-14T23:57:19.879Z,7.97
2019-04-14T23:59:49.434Z,7.76
